Time;durP1;ratioP1;P1;durP2;ratioP2;P2;SDS_P1;SDS_P2;PMS_P1;PMS_P2;Temp;Humidity;BMP_temperature;BMP_pressure;BME280_temperature;BME280_humidity;BME280_pressure;Samples;Min_cycle;Max_cycle;Signal;HPM_P1;HPM_P2
2022/11/18 00:00:13;;;;;;;11.27;6.53;;;;;;;17.80;66.60;94833.53;10436003;28;20511;-28
2022/11/18 00:05:14;;;;;;;13.02;7.70;;;;;;;17.80;66.68;94839.44;10440215;28;20036;-29
2022/11/18 00:10:14;;;;;;;13.10;6.80;;;;;;;17.78;66.71;94837.81;10442987;28;20480;-29
2022/11/18 00:15:15;;;;;;;13.48;7.00;;;;;;;17.80;66.65;94863.88;10440999;28;20633;-28
2022/11/18 00:20:15;;;;;;;13.27;6.20;;;;;;;17.84;66.51;94870.56;10437600;28;20051;-28
2022/11/18 00:25:15;;;;;;;14.07;7.10;;;;;;;17.85;66.66;94877.25;10433639;28;20036;-28
2022/11/18 00:30:16;;;;;;;12.87;6.43;;;;;;;17.84;66.47;94873.06;10434249;28;20029;-29
2022/11/18 00:35:16;;;;;;;12.88;6.57;;;;;;;17.85;66.60;94872.19;10434122;28;20029;-28
2022/11/18 00:40:17;;;;;;;9.73;6.20;;;;;;;17.79;66.42;94872.34;10430931;28;20036;-28
2022/11/18 00:45:19;;;;;;;13.15;6.57;;;;;;;17.84;66.19;94885.72;10434187;28;20087;-29
2022/11/18 00:50:19;;;;;;;10.20;5.88;;;;;;;17.84;66.58;94890.78;10436388;28;20075;-29
2022/11/18 00:55:20;;;;;;;9.40;5.60;;;;;;;17.81;66.56;94881.56;10431086;28;20079;-29
2022/11/18 01:00:20;;;;;;;13.27;6.97;;;;;;;17.82;66.65;94895.06;10438347;28;20117;-29
2022/11/18 01:05:20;;;;;;;9.02;5.43;;;;;;;17.83;66.48;94906.84;10435485;28;20064;-29
2022/11/18 01:10:21;;;;;;;9.63;5.93;;;;;;;17.83;66.86;94915.25;10439535;28;20425;-29
2022/11/18 01:15:21;;;;;;;11.07;7.33;;;;;;;17.83;66.44;94922.03;10436153;28;20502;-29
2022/11/18 01:20:21;;;;;;;11.40;6.13;;;;;;;17.82;66.64;94933.03;10433992;28;20033;-28
2022/11/18 01:25:22;;;;;;;10.53;5.80;;;;;;;17.82;66.73;94950.75;10430317;28;20287;-29
2022/11/18 01:30:22;;;;;;;10.70;6.40;;;;;;;17.82;66.72;94943.16;10434864;28;20025;-28
2022/11/18 01:35:23;;;;;;;10.57;6.43;;;;;;;17.85;66.92;94960.81;10431055;28;20041;-28
2022/11/18 01:40:25;;;;;;;13.33;6.20;;;;;;;17.85;66.53;94974.28;10427756;28;20034;-29
2022/11/18 01:45:34;;;;;;;10.07;5.88;;;;;;;17.85;66.51;94973.44;10423816;28;20145;-29
2022/11/18 01:50:40;;;;;;;10.25;5.53;;;;;;;17.85;66.66;94958.25;10435521;28;20025;-29
2022/11/18 01:55:45;;;;;;;11.50;5.53;;;;;;;17.83;66.60;94970.13;10437608;28;20053;-30
2022/11/18 02:00:45;;;;;;;10.68;5.63;;;;;;;17.76;66.62;94966.09;10444546;28;20048;-29
2022/11/18 02:05:48;;;;;;;9.07;5.37;;;;;;;17.78;67.02;94987.13;10440713;28;20502;-29
2022/11/18 02:10:48;;;;;;;10.23;5.70;;;;;;;17.76;66.68;94983.81;10439224;28;20112;-29
2022/11/18 02:16:06;;;;;;;9.73;5.60;;;;;;;17.77;67.01;95006.56;10444474;28;20032;-30
2022/11/18 02:21:39;;;;;;;11.77;6.07;;;;;;;17.77;66.91;95010.78;10438073;28;20379;-29
2022/11/18 02:27:26;;;;;;;8.82;5.40;;;;;;;17.76;66.83;95034.44;10430829;28;20049;-29
2022/11/18 02:32:42;;;;;;;10.27;5.30;;;;;;;17.77;67.00;95041.16;10434392;28;20468;-28
2022/11/18 02:38:04;;;;;;;11.13;6.03;;;;;;;17.78;66.88;95052.94;10425075;28;20037;-28
2022/11/18 02:43:09;;;;;;;9.68;5.20;;;;;;;17.74;66.94;95048.81;10443972;28;20024;-29
2022/11/18 02:48:11;;;;;;;7.95;5.20;;;;;;;17.81;66.86;95055.38;10439078;28;20036;-28
2022/11/18 02:53:16;;;;;;;8.98;4.65;;;;;;;17.85;66.65;95049.38;10439790;28;20029;-28
2022/11/18 02:58:19;;;;;;;9.60;5.15;;;;;;;17.84;66.74;95043.47;10440796;28;20075;-30
2022/11/18 03:03:29;;;;;;;8.02;4.80;;;;;;;17.84;66.40;95048.53;10442026;28;20116;-29
2022/11/18 03:08:37;;;;;;;8.38;5.07;;;;;;;17.81;66.83;95050.31;10446012;28;20025;-29
2022/11/18 03:14:19;;;;;;;6.78;4.47;;;;;;;17.80;66.74;95063.84;10444978;28;20033;-29
2022/11/18 03:19:29;;;;;;;9.57;5.00;;;;;;;17.75;66.91;95078.31;10386577;28;20420;-29
2022/11/18 03:24:33;;;;;;;8.68;4.80;;;;;;;17.69;66.67;95074.25;10441972;28;20033;-29
2022/11/18 03:29:39;;;;;;;8.05;4.97;;;;;;;17.77;66.90;95085.03;10440504;28;20024;-28
2022/11/18 03:34:44;;;;;;;8.37;5.17;;;;;;;17.76;66.69;95090.09;10437213;28;20146;-29
2022/11/18 03:39:53;;;;;;;6.90;4.40;;;;;;;17.75;66.76;95094.31;10439258;28;20071;-29
2022/11/18 03:45:02;;;;;;;7.57;4.95;;;;;;;17.73;66.75;95090.19;10433658;28;20109;-29
2022/11/18 03:50:17;;;;;;;6.95;4.72;;;;;;;17.77;66.66;95094.28;10440948;28;20082;-28
2022/11/18 03:55:25;;;;;;;7.05;4.03;;;;;;;17.77;66.78;95101.91;10432238;28;20036;-29
2022/11/18 04:00:31;;;;;;;6.85;4.35;;;;;;;17.82;66.80;95110.22;10439368;28;20119;-28
2022/11/18 04:05:37;;;;;;;9.00;6.03;;;;;;;17.85;66.26;95108.47;10435251;28;20025;-29
2022/11/18 04:16:43;;;;;;;7.47;4.38;;;;;;;17.81;66.39;95114.44;10426715;28;20427;-28
2022/11/18 04:21:46;;;;;;;10.57;4.72;;;;;;;17.79;66.70;95120.41;10424830;28;20045;-29
2022/11/18 04:26:47;;;;;;;6.60;4.22;;;;;;;17.77;66.77;95124.66;10439862;28;20102;-29
2022/11/18 04:31:47;;;;;;;6.23;4.07;;;;;;;17.80;67.02;95127.13;10434685;28;20098;-28
2022/11/18 04:36:48;;;;;;;8.07;3.72;;;;;;;17.82;66.26;95131.28;10425233;28;20044;-29
2022/11/18 04:41:54;;;;;;;7.60;4.73;;;;;;;17.87;66.05;95143.84;10435434;28;20034;-28
2022/11/18 04:46:57;;;;;;;6.47;4.18;;;;;;;17.87;66.12;95138.78;10432537;28;20033;-29
2022/11/18 04:51:58;;;;;;;7.07;4.20;;;;;;;17.87;66.17;95131.19;10433947;28;20049;-29
2022/11/18 04:56:59;;;;;;;7.68;4.45;;;;;;;17.88;66.17;95137.91;10434093;28;20041;-28
2022/11/18 05:01:59;;;;;;;7.40;4.70;;;;;;;17.90;65.98;95146.31;10430340;28;20426;-29
2022/11/18 05:07:02;;;;;;;6.10;4.10;;;;;;;17.92;66.00;95152.19;10436175;28;20295;-29
2022/11/18 05:17:22;;;;;;;5.28;3.83;;;;;;;17.92;66.19;95170.72;10436790;28;20029;-30
2022/11/18 05:22:22;;;;;;;8.65;4.00;;;;;;;17.93;66.21;95176.63;10428473;28;20041;-30
2022/11/18 05:27:23;;;;;;;8.63;3.70;;;;;;;17.94;65.87;95191.78;10437043;28;20090;-30
2022/11/18 05:32:23;;;;;;;8.53;3.77;;;;;;;17.93;66.11;95199.41;10434013;28;20029;-30
2022/11/18 05:37:24;;;;;;;7.22;4.28;;;;;;;17.96;65.70;95207.78;10429781;28;20090;-29
2022/11/18 05:48:03;;;;;;;4.82;3.25;;;;;;;17.85;65.29;95221.53;10432154;28;20024;-30
2022/11/18 05:53:04;;;;;;;6.28;3.28;;;;;;;17.76;63.88;95226.78;10431450;28;20028;-31
2022/11/18 05:58:04;;;;;;;22.85;10.55;;;;;;;17.74;64.01;95233.59;10432408;28;20028;-30
2022/11/18 06:03:15;;;;;;;16.17;8.20;;;;;;;17.85;64.24;95242.63;10431791;28;20419;-31
2022/11/18 06:08:17;;;;;;;17.98;8.73;;;;;;;17.90;64.17;95250.13;10430033;28;20534;-31
2022/11/18 06:13:24;;;;;;;17.30;8.98;;;;;;;17.91;64.15;95251.78;10432359;28;20037;-31
2022/11/18 06:18:29;;;;;;;16.33;8.75;;;;;;;17.90;64.37;95260.25;10432052;28;20067;-31
2022/11/18 06:23:34;;;;;;;19.60;10.20;;;;;;;17.89;64.55;95253.50;10420107;28;20406;-29
2022/11/18 06:28:35;;;;;;;19.25;9.63;;;;;;;17.86;64.48;95267.06;10433381;28;20088;-28
2022/11/18 06:33:35;;;;;;;21.13;9.85;;;;;;;17.91;64.66;95277.09;10430642;28;20043;-29
2022/11/18 06:38:36;;;;;;;18.23;7.82;;;;;;;17.77;62.63;95284.97;10428176;28;20025;-29
2022/11/18 06:43:40;;;;;;;14.10;7.93;;;;;;;17.86;63.70;95294.06;10435157;28;20037;-30
2022/11/18 06:48:40;;;;;;;18.80;8.43;;;;;;;17.86;64.52;95296.59;10435828;28;20284;-29
2022/11/18 06:53:41;;;;;;;23.70;8.10;;;;;;;17.77;62.43;95300.16;10437211;28;20518;-27
2022/11/18 06:58:42;;;;;;;21.10;8.38;;;;;;;17.76;63.80;95307.78;10437812;28;20291;-29
2022/11/18 07:03:44;;;;;;;31.88;7.93;;;;;;;17.74;63.07;95306.97;10445756;28;20025;-29
2022/11/18 07:08:44;;;;;;;14.38;7.85;;;;;;;17.77;64.06;95317.03;10437248;28;20025;-29
2022/11/18 07:13:46;;;;;;;18.60;8.33;;;;;;;17.79;64.06;95323.75;10443962;28;20339;-29
2022/11/18 07:18:48;;;;;;;15.55;7.68;;;;;;;17.77;64.44;95330.53;10438682;28;20033;-29
2022/11/18 07:23:49;;;;;;;20.27;8.23;;;;;;;17.74;64.40;95335.63;10428788;28;20044;-28
2022/11/18 07:28:49;;;;;;;17.83;8.18;;;;;;;17.80;64.39;95335.53;10440414;28;20029;-29
2022/11/18 07:33:53;;;;;;;19.95;8.18;;;;;;;17.85;64.31;95348.94;10436863;28;20526;-28
2022/11/18 07:38:54;;;;;;;21.10;9.23;;;;;;;17.82;64.69;95359.13;10433033;28;20490;-30
2022/11/18 07:43:56;;;;;;;18.08;7.60;;;;;;;17.88;63.97;95374.19;10437876;28;20029;-30
2022/11/18 07:48:59;;;;;;;20.77;7.82;;;;;;;17.91;64.09;95363.19;10435306;28;20041;-31
2022/11/18 07:54:00;;;;;;;15.07;7.20;;;;;;;17.91;63.81;95374.13;10435969;28;20034;-31
2022/11/18 07:59:00;;;;;;;15.95;7.75;;;;;;;17.92;64.21;95385.09;10435922;28;20037;-31
2022/11/18 08:04:10;;;;;;;18.23;8.32;;;;;;;17.91;64.46;95391.03;10438766;28;20032;-31
2022/11/18 08:09:10;;;;;;;22.95;10.10;;;;;;;17.89;64.45;95392.72;10435344;28;20029;-30
2022/11/18 08:14:11;;;;;;;15.07;8.10;;;;;;;17.83;64.70;95386.09;10440701;28;20024;-31
2022/11/18 08:19:11;;;;;;;15.93;8.27;;;;;;;17.85;64.89;95404.63;10434021;28;20503;-29
2022/11/18 08:24:11;;;;;;;21.80;8.40;;;;;;;17.86;64.69;95408.00;10433485;28;20560;-29
2022/11/18 08:29:12;;;;;;;14.10;8.07;;;;;;;17.91;64.40;95418.88;10444430;28;20409;-29
2022/11/18 08:34:13;;;;;;;17.27;7.97;;;;;;;17.93;64.38;95422.22;10431525;28;20298;-28
2022/11/18 08:39:14;;;;;;;26.70;9.45;;;;;;;17.86;65.98;95426.56;10431452;28;20728;-29
2022/11/18 08:44:15;;;;;;;16.60;8.00;;;;;;;17.90;64.08;95422.28;10432475;28;20143;-29
2022/11/18 08:49:16;;;;;;;26.10;8.90;;;;;;;17.90;65.01;95440.00;10427823;28;20058;-29
2022/11/18 08:54:16;;;;;;;19.50;8.87;;;;;;;17.86;65.40;95441.75;10429189;28;20036;-30
2022/11/18 08:59:17;;;;;;;24.30;8.70;;;;;;;17.88;65.00;95451.81;10441475;28;20075;-29
2022/11/18 09:04:17;;;;;;;20.13;8.60;;;;;;;17.88;64.92;95450.16;10426983;28;20033;-28
2022/11/18 09:09:18;;;;;;;21.80;8.88;;;;;;;17.87;65.28;95445.94;10430781;28;20747;-28
2022/11/18 09:14:18;;;;;;;25.00;8.20;;;;;;;17.89;65.28;95446.75;10436642;28;20637;-29
2022/11/18 09:19:19;;;;;;;20.00;8.33;;;;;;;17.86;65.36;95451.03;10432784;28;20034;-30
2022/11/18 09:24:19;;;;;;;21.95;8.65;;;;;;;17.88;65.33;95462.81;10427384;28;20041;-29
2022/11/18 09:29:24;;;;;;;20.40;7.53;;;;;;;17.92;65.35;95461.06;10435238;28;20059;-29
2022/11/18 09:34:24;;;;;;;22.95;8.48;;;;;;;17.88;65.24;95472.09;10428851;28;20495;-30
2022/11/18 09:39:25;;;;;;;13.53;6.57;;;;;;;17.89;65.21;95471.22;10429117;28;20036;-34
2022/11/18 09:44:41;;;;;;;19.98;8.23;;;;;;;17.94;65.19;95494.78;10433503;28;20033;-29
2022/11/18 09:49:43;;;;;;;15.85;7.65;;;;;;;17.94;65.06;95499.84;10427892;28;20032;-29
2022/11/18 09:54:44;;;;;;;18.67;7.25;;;;;;;17.92;65.05;95506.63;10421703;28;20033;-29
2022/11/18 09:59:45;;;;;;;12.52;4.35;;;;;;;17.79;62.37;95518.66;10439020;28;20407;-31
2022/11/18 10:04:45;;;;;;;9.95;4.85;;;;;;;17.84;62.65;95523.66;10433331;28;20037;-30
2022/11/18 10:09:48;;;;;;;18.38;7.20;;;;;;;17.83;62.44;95512.66;10429354;28;20025;-29
2022/11/18 10:15:03;;;;;;;14.82;6.53;;;;;;;17.88;62.58;95525.25;10435201;28;20515;-29
2022/11/18 10:20:20;;;;;;;16.17;5.90;;;;;;;17.82;63.33;95530.44;10436836;28;20033;-29
2022/11/18 10:25:21;;;;;;;16.45;6.50;;;;;;;17.86;63.05;95534.56;10438106;28;20029;-29
2022/11/18 10:30:24;;;;;;;15.35;6.28;;;;;;;17.85;62.74;95525.31;10438789;28;20029;-29
2022/11/18 10:35:37;;;;;;;9.88;4.93;;;;;;;17.84;63.23;95528.72;10439421;28;20065;-29
2022/11/18 10:40:44;;;;;;;14.60;5.22;;;;;;;17.82;63.01;95525.38;10433390;28;20403;-29
2022/11/18 10:45:45;;;;;;;12.35;5.00;;;;;;;17.84;63.13;95537.13;10431303;28;20109;-30
2022/11/18 10:50:50;;;;;;;12.57;5.73;;;;;;;17.86;62.82;95537.09;10440894;28;20471;-29
2022/11/18 10:56:01;;;;;;;12.55;5.10;;;;;;;17.86;63.33;95544.69;10436212;28;20399;-29
2022/11/18 11:01:22;;;;;;;8.98;4.82;;;;;;;17.89;62.92;95542.09;10431051;28;20068;-29
2022/11/18 11:06:25;;;;;;;12.15;5.80;;;;;;;17.87;63.22;95544.69;10440186;28;20120;-29
2022/11/18 11:11:32;;;;;;;11.70;5.07;;;;;;;17.89;62.64;95537.03;10443256;28;20037;-31
2022/11/18 11:16:44;;;;;;;9.85;5.10;;;;;;;17.93;62.76;95531.09;10441716;28;20103;-29
2022/11/18 11:21:44;;;;;;;10.35;5.30;;;;;;;17.94;62.88;95540.34;10426377;28;20037;-29
2022/11/18 11:26:56;;;;;;;13.20;6.33;;;;;;;17.96;62.77;95531.03;10445167;28;20044;-29
2022/11/18 11:32:18;;;;;;;12.07;5.22;;;;;;;18.00;62.64;95541.06;10432221;28;20297;-29
2022/11/18 11:37:59;;;;;;;11.95;6.15;;;;;;;17.98;63.25;95539.44;10431079;28;20522;-30
2022/11/18 11:43:14;;;;;;;11.45;6.05;;;;;;;17.99;63.69;95538.59;10435101;28;20282;-29
2022/11/18 11:49:00;;;;;;;14.73;5.80;;;;;;;18.00;62.78;95540.25;10433415;28;20026;-30
2022/11/18 11:54:28;;;;;;;15.55;7.28;;;;;;;18.01;63.21;95546.97;10428117;28;20646;-29
2022/11/18 11:59:58;;;;;;;14.50;6.13;;;;;;;18.01;63.29;95545.28;10440780;28;20063;-29
2022/11/18 12:05:07;;;;;;;13.23;5.53;;;;;;;18.01;63.44;95546.97;10429408;28;20083;-29
2022/11/18 12:10:17;;;;;;;12.52;6.10;;;;;;;18.02;63.40;95553.72;10430743;28;20025;-30
2022/11/18 12:15:24;;;;;;;13.05;5.90;;;;;;;18.00;62.93;95552.91;10439970;28;20134;-29
2022/11/18 12:20:42;;;;;;;11.80;6.28;;;;;;;18.04;63.39;95562.97;10435944;28;20029;-30
2022/11/18 12:25:45;;;;;;;11.73;5.95;;;;;;;18.01;63.22;95564.72;10432316;28;20037;-29
2022/11/18 12:30:45;;;;;;;21.65;10.20;;;;;;;17.98;63.61;95558.00;10436116;28;20162;-30
2022/11/18 12:35:49;;;;;;;12.77;6.00;;;;;;;18.01;63.50;95552.06;10433688;28;20491;-30
2022/11/18 12:40:49;;;;;;;15.07;9.48;;;;;;;18.03;63.34;95562.97;10431708;28;20025;-29
2022/11/18 12:45:55;;;;;;;14.17;9.07;;;;;;;18.00;63.64;95563.03;10433705;28;20049;-29
2022/11/18 12:50:58;;;;;;;18.67;9.10;;;;;;;17.99;63.78;95574.03;10437372;28;20260;-28
2022/11/18 12:55:58;;;;;;;16.25;8.77;;;;;;;17.98;63.18;95575.72;10433646;28;20115;-30
2022/11/18 13:01:09;;;;;;;19.23;10.00;;;;;;;17.98;63.50;95567.31;10434806;28;20067;-30
2022/11/18 13:06:28;;;;;;;20.27;9.02;;;;;;;18.02;64.28;95568.91;10433690;28;20402;-29
2022/11/18 13:11:43;;;;;;;18.00;9.02;;;;;;;18.00;63.60;95565.56;10436741;28;20032;-29
2022/11/18 13:27:43;;;;;;;18.00;9.85;;;;;;;17.97;63.35;95560.53;10435531;28;20491;-30
2022/11/18 13:32:46;;;;;;;18.23;10.60;;;;;;;17.97;63.63;95565.59;10426862;28;20075;-30
2022/11/18 13:37:53;;;;;;;26.65;11.00;;;;;;;17.95;65.68;95555.53;10431150;28;20036;-28
2022/11/18 13:42:54;;;;;;;27.90;12.68;;;;;;;18.06;66.25;95571.38;10436304;28;20170;-30
2022/11/18 13:48:00;;;;;;;19.92;10.77;;;;;;;18.03;63.58;95565.50;10423590;28;20029;-30
2022/11/18 13:53:04;;;;;;;19.88;10.25;;;;;;;17.99;63.71;95568.97;10431048;28;20029;-32
2022/11/18 13:58:22;;;;;;;24.30;11.32;;;;;;;17.97;64.23;95570.66;10432700;28;20048;-30
2022/11/18 14:03:28;;;;;;;16.23;9.70;;;;;;;17.98;63.45;95567.31;10431370;28;20032;-32
2022/11/18 14:08:34;;;;;;;16.02;9.50;;;;;;;17.99;64.08;95574.03;10433117;28;20033;-30
2022/11/18 14:13:50;;;;;;;17.60;9.52;;;;;;;18.01;63.47;95582.44;10437639;28;20032;-30
2022/11/18 14:18:51;;;;;;;17.00;9.15;;;;;;;18.00;63.74;95581.59;10433273;28;20506;-30
2022/11/18 14:23:51;;;;;;;30.10;10.05;;;;;;;18.01;64.73;95587.50;10422095;28;20066;-29
2022/11/18 14:28:54;;;;;;;21.70;10.67;;;;;;;18.03;64.03;95580.72;10429078;28;20029;-29
2022/11/18 14:34:26;;;;;;;29.92;10.20;;;;;;;18.07;64.02;95593.28;10432839;28;20303;-30
2022/11/18 14:39:29;;;;;;;22.50;10.38;;;;;;;18.09;63.98;95600.88;10421329;28;20033;-30
2022/11/18 14:44:30;;;;;;;24.10;10.38;;;;;;;18.03;64.45;95606.88;10433843;28;20029;-29
2022/11/18 14:49:31;;;;;;;19.08;10.30;;;;;;;17.97;67.03;95606.13;10431809;28;20033;-30
2022/11/18 14:54:31;;;;;;;23.83;10.48;;;;;;;18.04;66.63;95602.63;10430864;28;20044;-30
2022/11/18 14:59:32;;;;;;;22.40;10.70;;;;;;;18.03;65.53;95611.09;10432470;28;20047;-29
2022/11/18 15:04:32;;;;;;;19.00;10.48;;;;;;;18.02;65.07;95604.38;10425415;28;20048;-30
2022/11/18 15:09:33;;;;;;;23.47;9.57;;;;;;;17.91;64.56;95614.66;10435370;28;20025;-30
2022/11/18 15:14:34;;;;;;;18.90;9.13;;;;;;;17.98;65.27;95623.84;10442017;28;20284;-30
2022/11/18 15:19:36;;;;;;;22.45;10.10;;;;;;;18.01;65.04;95622.97;10439175;28;20025;-30
2022/11/18 15:24:36;;;;;;;19.45;9.70;;;;;;;17.99;65.51;95630.56;10436361;28;20039;-30
2022/11/18 15:29:36;;;;;;;15.32;9.57;;;;;;;17.95;65.22;95625.56;10438097;28;20029;-30
2022/11/18 15:34:37;;;;;;;17.97;9.40;;;;;;;18.00;65.09;95633.94;10438421;28;20140;-29
2022/11/18 15:39:37;;;;;;;16.20;8.53;;;;;;;17.98;65.41;95638.22;10434518;28;20484;-30
2022/11/18 15:44:38;;;;;;;18.10;9.27;;;;;;;17.97;65.06;95631.44;10437991;28;20120;-30
2022/11/18 15:49:42;;;;;;;17.03;9.20;;;;;;;17.98;64.49;95639.03;10434724;28;20283;-30
2022/11/18 15:54:43;;;;;;;15.15;8.93;;;;;;;18.00;64.73;95641.53;10425320;28;20174;-30
2022/11/18 15:59:43;;;;;;;19.13;8.88;;;;;;;18.01;65.20;95648.28;10434322;28;20363;-29
2022/11/18 16:04:44;;;;;;;18.47;9.80;;;;;;;18.04;65.94;95648.22;10434034;28;20033;-30
2022/11/18 16:20:36;;;;;;;18.73;8.10;;;;;;;18.01;65.07;95668.53;10435153;28;20041;-29
2022/11/18 16:25:42;;;;;;;12.23;7.37;;;;;;;17.98;64.79;95663.53;10432319;28;20025;-30
2022/11/18 16:36:08;;;;;;;14.23;7.93;;;;;;;17.96;65.07;95668.59;10429522;28;20041;-30
2022/11/18 16:46:30;;;;;;;17.35;6.75;;;;;;;17.97;65.29;95677.88;10434848;28;20283;-30
2022/11/18 16:51:32;;;;;;;18.45;9.82;;;;;;;18.04;64.62;95683.69;10436022;28;20053;-29
2022/11/18 16:56:34;;;;;;;16.65;8.50;;;;;;;18.07;64.09;95683.66;10433916;28;20091;-29
2022/11/18 17:01:34;;;;;;;16.17;8.95;;;;;;;18.04;64.01;95681.16;10433915;28;20079;-29
2022/11/18 17:06:35;;;;;;;17.33;9.03;;;;;;;18.02;64.29;95680.34;10430829;28;20095;-29
2022/11/18 17:11:35;;;;;;;16.77;9.03;;;;;;;17.99;64.27;95685.47;10435830;28;20517;-30
2022/11/18 17:16:36;;;;;;;17.73;9.13;;;;;;;17.95;63.95;95687.19;10433547;28;20507;-29
2022/11/18 17:21:36;;;;;;;19.52;7.90;;;;;;;17.88;63.09;95688.13;10419161;28;20323;-29
2022/11/18 17:26:36;;;;;;;18.33;8.30;;;;;;;17.93;63.87;95690.59;10435491;28;20543;-29
2022/11/18 17:31:38;;;;;;;20.70;8.93;;;;;;;17.93;64.07;95698.19;10434186;28;20511;-29
2022/11/18 17:36:39;;;;;;;17.33;8.65;;;;;;;17.94;64.04;95704.94;10422540;28;20350;-32
2022/11/18 17:46:58;;;;;;;16.13;8.75;;;;;;;17.94;64.23;95707.47;10429708;28;20037;-29
2022/11/18 17:51:58;;;;;;;13.87;7.50;;;;;;;18.04;63.89;95709.00;10432829;28;20042;-31
2022/11/18 17:56:59;;;;;;;15.07;6.60;;;;;;;18.04;63.58;95709.00;10433214;28;20288;-31
2022/11/18 18:02:00;;;;;;;16.13;7.17;;;;;;;17.99;63.73;95714.13;10421198;28;20288;-30
2022/11/18 18:07:00;;;;;;;13.18;6.68;;;;;;;17.98;63.55;95721.78;10432329;28;20288;-29
2022/11/18 18:14:11;;;;;;;13.43;6.90;;;;;;;17.97;63.98;95727.66;10428240;28;20037;-30
2022/11/18 18:17:21;;;;;;;19.00;9.20;;;;;;;17.98;63.95;95734.44;10428875;28;20271;-29
2022/11/18 18:22:21;;;;;;;20.13;7.63;;;;;;;17.94;63.94;95731.09;10414977;28;20743;-29
2022/11/18 18:27:22;;;;;;;15.73;7.07;;;;;;;17.95;63.68;95740.38;10431452;28;20593;-30
2022/11/18 18:32:22;;;;;;;13.60;6.50;;;;;;;17.93;63.66;95756.44;10423238;28;20298;-30
2022/11/18 18:37:23;;;;;;;9.80;6.20;;;;;;;17.91;63.36;95753.09;10425458;28;20043;-30
2022/11/18 18:42:23;;;;;;;11.82;6.50;;;;;;;17.92;63.69;95747.16;10436475;28;20043;-31
2022/11/18 18:47:23;;;;;;;9.63;5.63;;;;;;;17.89;62.58;95749.72;10427554;28;20036;-30
2022/11/18 18:52:24;;;;;;;11.93;7.40;;;;;;;17.96;63.60;95751.31;10437275;28;20031;-30
2022/11/18 18:57:24;;;;;;;15.00;7.20;;;;;;;18.02;63.21;95759.69;10435058;28;20279;-31
2022/11/18 19:02:25;;;;;;;14.65;6.95;;;;;;;17.98;64.31;95760.59;10427730;28;20115;-30
2022/11/18 19:07:27;;;;;;;13.80;7.13;;;;;;;17.93;64.39;95744.59;10432680;28;20067;-32
2022/11/18 19:12:43;;;;;;;11.73;6.40;;;;;;;17.97;64.57;95753.00;10440209;28;20438;-31
2022/11/18 19:17:44;;;;;;;15.05;7.22;;;;;;;17.86;65.70;95742.19;10439215;28;20034;-31
2022/11/18 19:22:44;;;;;;;13.57;6.90;;;;;;;17.91;65.33;95751.38;10428459;28;20573;-31
2022/11/18 19:27:44;;;;;;;16.03;6.43;;;;;;;17.95;64.98;95764.84;10441249;28;20029;-33
2022/11/18 19:32:45;;;;;;;14.43;6.23;;;;;;;17.95;65.18;95759.78;10437118;28;20033;-30
2022/11/18 19:37:45;;;;;;;10.60;6.47;;;;;;;17.95;65.19;95752.19;10434210;28;20390;-30
2022/11/18 19:42:46;;;;;;;11.10;6.13;;;;;;;17.98;65.30;95754.69;10438736;28;20032;-31
2022/11/18 19:47:47;;;;;;;12.23;6.18;;;;;;;18.02;65.13;95754.63;10436364;28;20039;-30
2022/11/18 19:52:47;;;;;;;10.47;5.67;;;;;;;18.07;65.28;95764.69;10435885;28;20044;-31
2022/11/18 19:57:47;;;;;;;10.85;6.13;;;;;;;18.07;65.57;95769.75;10438714;28;20291;-31
2022/11/18 20:02:48;;;;;;;10.10;6.17;;;;;;;18.07;65.24;95769.75;10433097;28;20032;-30
2022/11/18 20:07:48;;;;;;;12.20;6.60;;;;;;;18.03;66.05;95763.03;10436492;28;20411;-30
2022/11/18 20:12:48;;;;;;;9.23;6.40;;;;;;;18.00;66.34;95760.56;10442729;28;20574;-31
2022/11/18 20:17:49;;;;;;;11.27;6.07;;;;;;;18.05;65.87;95754.56;10436372;28;20450;-31
2022/11/18 20:22:52;;;;;;;10.20;5.97;;;;;;;17.99;66.15;95758.91;10418703;28;20404;-31
2022/11/18 20:27:52;;;;;;;10.40;5.68;;;;;;;17.99;65.82;95762.25;10431736;28;20177;-30
2022/11/18 20:32:53;;;;;;;10.75;5.43;;;;;;;17.97;65.86;95763.13;10426339;28;20026;-30
2022/11/18 20:37:53;;;;;;;15.75;6.00;;;;;;;18.05;65.01;95779.06;10420770;28;20088;-31
2022/11/18 20:43:11;;;;;;;9.40;5.20;;;;;;;18.00;65.41;95763.91;10418210;28;20040;-31
2022/11/18 20:48:13;;;;;;;11.68;5.40;;;;;;;18.11;65.17;95781.50;10431256;28;20075;-31
2022/11/18 20:53:14;;;;;;;10.27;4.85;;;;;;;18.09;65.49;95785.78;10428902;28;20033;-31
2022/11/18 20:58:15;;;;;;;9.75;5.05;;;;;;;18.02;65.50;95791.78;10430681;28;20082;-30
2022/11/18 21:03:15;;;;;;;11.95;5.88;;;;;;;17.96;65.78;95791.84;10435113;28;20077;-31
2022/11/18 21:08:15;;;;;;;8.63;4.57;;;;;;;17.93;65.98;95784.28;10429006;28;20035;-31
2022/11/18 21:18:35;;;;;;;7.03;4.57;;;;;;;17.92;65.55;95783.44;10432622;28;20291;-30
2022/11/18 21:23:35;;;;;;;8.83;4.73;;;;;;;17.94;65.16;95788.50;10428171;28;20024;-30
2022/11/18 21:28:36;;;;;;;10.23;5.20;;;;;;;18.00;64.96;95796.03;10431835;28;20040;-30
2022/11/18 21:33:36;;;;;;;6.85;3.92;;;;;;;18.01;64.68;95797.69;10421082;28;20068;-30
2022/11/18 21:38:36;;;;;;;6.53;3.70;;;;;;;18.03;64.51;95795.97;10426496;28;20037;-31
2022/11/18 21:43:38;;;;;;;7.13;4.10;;;;;;;18.05;65.40;95799.31;10430406;28;20080;-30
2022/11/18 21:48:39;;;;;;;9.07;3.75;;;;;;;18.07;64.82;95807.75;10428121;28;20339;-31
2022/11/18 21:53:40;;;;;;;8.43;3.90;;;;;;;18.05;64.69;95802.69;10431146;28;20381;-31
2022/11/18 21:58:40;;;;;;;6.90;3.60;;;;;;;18.05;64.66;95804.38;10425902;28;20476;-30
2022/11/18 22:03:43;;;;;;;5.20;3.65;;;;;;;18.04;64.47;95802.72;10436399;28;20029;-32
2022/11/18 22:08:44;;;;;;;5.85;3.55;;;;;;;18.01;65.11;95800.22;10429370;28;20033;-30
2022/11/18 22:13:44;;;;;;;6.55;3.78;;;;;;;17.96;65.62;95804.50;10439715;28;20483;-30
2022/11/18 22:18:46;;;;;;;7.88;3.70;;;;;;;17.91;65.26;95801.22;10443598;28;20594;-31
2022/11/18 22:23:47;;;;;;;4.45;2.67;;;;;;;17.90;65.36;95805.41;10440955;28;20029;-30
2022/11/18 22:28:52;;;;;;;4.75;3.80;;;;;;;17.88;65.68;95801.22;10444697;28;20040;-32
2022/11/18 22:33:54;;;;;;;9.35;3.40;;;;;;;17.85;65.45;95791.16;10443292;28;20033;-30
2022/11/18 22:38:54;;;;;;;5.57;3.10;;;;;;;17.89;65.45;95780.09;10438712;28;20477;-30
2022/11/18 22:43:55;;;;;;;5.18;2.88;;;;;;;17.93;64.45;95782.56;10441738;28;20033;-31
2022/11/18 22:48:57;;;;;;;4.72;2.97;;;;;;;18.00;64.14;95798.56;10447050;28;20053;-30
2022/11/18 22:53:57;;;;;;;6.63;3.17;;;;;;;17.95;65.77;95800.28;10439586;28;20163;-30
2022/11/18 22:58:58;;;;;;;4.90;3.15;;;;;;;17.89;64.73;95805.44;10448858;28;20124;-30
2022/11/18 23:03:58;;;;;;;7.77;3.40;;;;;;;17.87;65.11;95812.22;10440854;28;20448;-31
2022/11/18 23:08:58;;;;;;;4.73;2.50;;;;;;;17.86;64.88;95810.53;10448947;28;20260;-31
2022/11/18 23:14:03;;;;;;;5.13;2.63;;;;;;;17.85;64.80;95813.94;10447213;28;20495;-29
2022/11/18 23:19:06;;;;;;;4.18;2.30;;;;;;;17.85;64.95;95819.00;10442767;28;20039;-31
2022/11/18 23:24:09;;;;;;;5.13;2.95;;;;;;;17.80;65.10;95818.19;10439747;28;20033;-31
2022/11/18 23:29:11;;;;;;;8.55;2.90;;;;;;;17.84;64.71;95823.22;10440521;28;20036;-31
2022/11/18 23:34:13;;;;;;;4.22;2.20;;;;;;;17.82;64.89;95813.97;10437569;28;20057;-30
2022/11/18 23:39:14;;;;;;;3.58;2.20;;;;;;;17.65;64.51;95790.56;10441464;28;20029;-31
2022/11/18 23:44:15;;;;;;;5.60;2.15;;;;;;;17.91;64.28;95829.88;10438289;28;20029;-30
2022/11/18 23:49:15;;;;;;;3.50;2.17;;;;;;;17.96;64.44;95812.09;10435107;28;20033;-32
2022/11/18 23:54:15;;;;;;;3.13;2.23;;;;;;;17.95;63.99;95811.28;10442777;28;20291;-31
2022/11/18 23:59:16;;;;;;;3.80;1.93;;;;;;;17.84;64.20;95804.66;10437853;28;20371;-32
